Latest Weather Observations for Pallamana

IDS60901

Issued at 8:51 pm CST Wednesday 27 May 2015 (issued every 10 minutes, with the page automatically refreshed every 10 minutes)

About weather observations | Map of Adelaide area stations | Latest observations for Adelaide area | Other Formats
Station Details ID: 024584 Name: PALLAMANA AERODROME Lat: -35.06 Lon: 139.23 Height: 45.0 m
Data from the previous 72 hours. | See also: Recent months at Pallamana
Date/Time
CST
Tmp

°C
App
Tmp
°C
Dew
Point
°C
Rel
Hum
%
Delta-T

°C
Wind Press
QNH
hPa
Press
MSL
hPa
Rain
since
9 am
mm
Dir
 
Spd
km/h
Gust
km/h
Spd
kts
Gust
kts
27/08:30pm 13.6 12.1 9.3 75 2.2 WNW 7 9 4 5 1019.2 1019.2 0.0
27/08:00pm 13.4 12.1 9.3 76 2.1 N 6 7 3 4 1019.2 1019.2 0.0
27/07:30pm 14.1 12.3 9.4 73 2.4 NNW 9 13 5 7 1019.1 1019.1 0.0
27/07:00pm 13.5 11.6 8.9 74 2.3 NNW 9 11 5 6 1019.1 1019.1 0.0
27/06:30pm 14.8 12.1 8.9 68 3.0 N 13 20 7 11 1019.1 1019.1 0.0
27/06:00pm 15.0 12.5 8.2 64 3.4 NNW 11 15 6 8 1019.0 1019.0 0.0
27/05:30pm 17.0 14.4 7.9 55 4.6 NNW 11 15 6 8 1018.8 1018.8 0.0
27/05:00pm 17.6 14.6 7.5 51 5.1 N 13 24 7 13 1018.8 1018.8 0.0
27/04:30pm 18.6 15.4 6.8 46 5.9 NW 13 26 7 14 1018.8 1018.8 0.0
27/04:00pm 19.1 14.7 6.7 44 6.2 WNW 19 24 10 13 1018.8 1018.8 0.0
27/03:30pm 19.5 15.2 7.0 44 6.3 NW 19 28 10 15 1018.8 1018.8 0.0
27/03:00pm 19.8 15.0 7.5 45 6.3 NW 22 32 12 17 1018.8 1018.8 0.0
27/02:30pm 19.9 16.0 9.3 50 5.6 WNW 20 32 11 17 1018.8 1018.8 0.0
27/02:00pm 20.1 16.6 8.9 48 5.9 WNW 17 26 9 14 1018.8 1018.8 0.0
27/01:30pm 20.3 16.4 9.6 50 5.7 WNW 20 28 11 15 1018.9 1018.9 0.0
27/01:00pm 20.4 16.7 9.5 49 5.8 NW 19 30 10 16 1018.7 1018.7 0.0
27/12:30pm 20.1 15.7 9.1 49 5.8 WNW 22 32 12 17 1019.0 1019.0 0.0
27/12:00pm 20.0 16.2 9.9 52 5.4 NW 20 28 11 15 1019.4 1019.4 0.0
27/11:30am 19.9 16.3 10.5 54 5.1 NW 20 30 11 16 1019.8 1019.8 0.0
27/11:00am 19.2 15.2 10.5 57 4.7 WNW 22 32 12 17 1020.2 1020.2 0.0
27/10:30am 18.6 14.7 10.8 60 4.2 NW 22 33 12 18 1020.4 1020.4 0.0
27/10:00am 18.1 15.1 10.6 61 4.0 WNW 17 24 9 13 1020.6 1020.6 0.0
27/09:30am 16.8 13.4 10.4 66 3.4 NW 19 24 10 13 1020.6 1020.6 0.0
27/09:00am 15.5 11.9 10.4 71 2.7 N 20 24 11 13 1020.7 1020.7 0.0
27/08:30am 13.4 11.1 10.3 81 1.6 N 13 19 7 10 1020.8 1020.8 0.0
27/08:00am 11.4 8.6 8.6 83 1.4 NNW 13 17 7 9 1020.7 1020.7 0.0
27/07:30am 10.4 7.8 7.9 84 1.2 N 11 17 6 9 1020.6 1020.6 0.0
27/07:00am 9.6 7.7 7.5 87 1.0 NNE 7 11 4 6 1020.3 1020.3 0.0
27/06:30am 9.5 7.5 7.2 85 1.1 N 7 9 4 5 1020.2 1020.2 0.0
27/06:00am 9.2 7.1 6.6 84 1.2 NNE 7 11 4 6 1020.1 1020.1 0.0
27/05:30am 11.9 9.4 8.2 78 1.8 WSW 11 13 6 7 1020.1 1020.1 0.0
27/05:00am 10.5 9.9 7.6 82 1.4 CALM 0 0 0 0 1020.0 1020.0 0.0
27/04:30am 11.0 9.4 8.6 85 1.2 NW 7 9 4 5 1019.5 1019.5 0.0
27/04:00am 9.8 9.0 8.1 89 0.8 WNW 2 7 1 4 1019.4 1019.4 0.0
27/03:30am 10.3 9.8 8.0 86 1.1 CALM 0 0 0 0 1019.7 1019.7 0.0
27/03:00am 9.2 7.7 6.8 85 1.1 WNW 4 6 2 3 1019.9 1019.9 0.0
27/02:30am 12.0 10.7 9.2 83 1.4 NW 6 7 3 4 1020.1 1020.1 0.0
27/02:00am 11.9 10.7 9.5 85 1.2 SSE 6 7 3 4 1020.3 1020.3 0.0
27/01:30am 13.5 12.1 9.4 76 2.1 NNW 7 11 4 6 1020.3 1020.3 0.0
27/01:00am 12.9 12.2 10.2 84 1.4 NNW 4 7 2 4 1020.5 1020.5 0.0
27/12:30am 13.3 11.8 10.4 82 1.5 NNE 9 9 5 5 1020.9 1020.9 0.0
27/12:00am 12.8 12.7 10.9 88 1.0 ESE 2 7 1 4 1021.2 1021.2 0.0
 
Date/Time
CST
Tmp

°C
App
Tmp
°C
Dew
Point
°C
Rel
Hum
%
Delta-T

°C
Wind Press
QNH
hPa
Press
MSL
hPa
Rain
since
9 am
mm
Dir
 
Spd
km/h
Gust
km/h
Spd
kts
Gust
kts
26/11:30pm 13.1 12.2 10.8 86 1.2 N 6 9 3 5 1021.1 1021.1 0.0
26/11:00pm 13.2 11.7 10.7 85 1.3 N 9 13 5 7 1021.3 1021.3 0.0
26/10:30pm 13.1 12.0 10.8 86 1.2 NNW 7 9 4 5 1021.6 1021.6 0.0
26/10:00pm 13.7 12.2 10.4 80 1.7 NW 9 11 5 6 1021.8 1021.8 0.0
26/09:30pm 13.7 12.2 10.4 80 1.7 NNW 9 11 5 6 1021.7 1021.7 0.0
26/09:00pm 13.3 11.9 10.8 85 1.3 N 9 11 5 6 1021.9 1021.9 0.0
26/08:30pm 13.2 11.6 10.3 82 1.5 NNW 9 9 5 5 1021.8 1021.8 0.0
26/08:00pm 13.4 11.8 10.1 80 1.7 NNW 9 11 5 6 1021.8 1021.8 0.0
26/07:30pm 13.7 11.7 10.0 78 1.9 N 11 13 6 7 1021.7 1021.7 0.0
26/07:00pm 13.1 11.3 9.4 78 1.9 N 9 11 5 6 1021.6 1021.6 0.0
26/06:30pm 13.5 11.6 9.2 75 2.2 N 9 11 5 6 1021.4 1021.4 0.0
26/06:00pm 14.6 12.3 9.1 69 2.8 N 11 13 6 7 1021.4 1021.4 0.0
26/05:30pm 16.9 15.6 9.8 63 3.7 NNW 7 9 4 5 1021.3 1021.3 0.0
26/05:00pm 18.1 16.3 9.5 57 4.5 NNW 9 13 5 7 1021.1 1021.1 0.0
26/04:30pm 20.4 17.9 9.7 50 5.7 NNW 13 15 7 8 1021.2 1021.2 0.0
26/04:00pm 20.2 19.0 10.2 52 5.4 N 7 13 4 7 1021.1 1021.1 0.0
26/03:30pm 20.4 18.8 10.2 52 5.5 NE 9 13 5 7 1021.0 1021.0 0.0
26/03:00pm 19.8 17.3 9.6 51 5.4 NNE 13 17 7 9 1021.3 1021.3 0.0
26/02:30pm 20.1 17.6 9.8 51 5.5 NE 13 19 7 10 1021.4 1021.4 0.0
26/02:00pm 19.7 16.9 10.0 53 5.2 NE 15 19 8 10 1021.8 1021.8 0.0
26/01:30pm 19.3 17.8 10.6 57 4.7 N 9 13 5 7 1022.5 1022.5 0.0
26/01:00pm 18.4 15.4 10.6 60 4.2 N 17 20 9 11 1023.1 1023.1 0.0
26/12:30pm 17.4 13.9 10.2 62 3.8 N 19 24 10 13 1023.5 1023.5 0.0
26/12:00pm 17.5 14.1 10.6 64 3.7 NNE 19 26 10 14 1024.0 1024.0 0.0
26/11:30am 16.7 14.0 10.5 67 3.3 N 15 20 8 11 1024.7 1024.7 0.0
26/11:00am 15.4 12.7 10.2 71 2.7 NNE 15 19 8 10 1025.1 1025.1 0.0
26/10:30am 14.1 11.1 9.2 72 2.5 NNE 15 20 8 11 1025.6 1025.6 0.0
26/10:00am 13.0 11.1 9.2 78 1.9 NNE 9 13 5 7 1025.7 1025.7 0.0
26/09:30am 12.0 10.0 8.8 81 1.6 NNE 9 11 5 6 1026.0 1026.0 0.0
26/09:00am 11.5 9.4 8.4 81 1.5 N 9 11 5 6 1026.2 1026.2 0.0
26/08:30am 10.3 8.9 8.7 90 0.8 N 6 9 3 5 1026.2 1026.2 0.0
26/08:00am 9.1 8.7 8.1 93 0.5 CALM 0 6 0 3 1026.2 1026.2 0.0
26/07:30am 6.0 4.9 5.1 94 0.4 CALM 0 0 0 0 1026.1 1026.1 0.0
26/07:00am 7.8 7.0 6.7 93 0.5 CALM 0 0 0 0 1026.2 1026.2 0.0
26/06:30am 7.3 5.3 6.2 93 0.5 N 6 7 3 4 1026.2 1026.2 0.0
26/06:00am 8.6 6.6 7.3 91 0.6 NNW 7 9 4 5 1026.1 1026.1 0.0
26/05:30am 9.1 6.9 7.8 92 0.6 N 9 9 5 5 1026.0 1026.0 0.0
26/05:00am 9.5 7.7 8.0 90 0.7 NNW 7 7 4 4 1026.2 1026.2 0.0
26/04:30am 9.2 7.4 7.9 92 0.6 N 7 9 4 5 1026.1 1026.1 0.0
26/04:00am 9.2 8.7 7.7 90 0.7 CALM 0 0 0 0 1025.8 1025.8 0.0
26/03:30am 9.8 9.3 7.9 88 0.9 CALM 0 0 0 0 1026.1 1026.1 0.0
26/03:00am 10.0 9.6 8.3 89 0.8 CALM 0 0 0 0 1026.5 1026.5 0.0
26/02:30am 10.4 10.0 8.3 87 1.0 CALM 0 0 0 0 1026.7 1026.7 0.0
26/02:00am 10.5 8.9 8.0 84 1.2 N 6 7 3 4 1027.0 1027.0 0.0
26/01:30am 11.1 9.3 7.8 80 1.6 N 7 9 4 5 1026.7 1026.7 0.0
26/01:00am 11.0 9.4 7.9 81 1.5 N 6 6 3 3 1026.8 1026.8 0.0
26/12:30am 11.0 10.6 8.3 83 1.3 CALM 0 0 0 0 1027.0 1027.0 0.0
26/12:00am 11.2 9.6 7.9 80 1.6 N 6 7 3 4 1027.3 1027.3 0.0
 
Date/Time
CST
Tmp

°C
App
Tmp
°C
Dew
Point
°C
Rel
Hum
%
Delta-T

°C
Wind Press
QNH
hPa
Press
MSL
hPa
Rain
since
9 am
mm
Dir
 
Spd
km/h
Gust
km/h
Spd
kts
Gust
kts
25/11:30pm 11.7 9.1 7.8 77 1.9 N 11 13 6 7 1027.9 1027.9 0.0
25/11:00pm 11.9 9.3 7.8 76 2.0 NNW 11 13 6 7 1028.0 1028.0 0.0
25/10:30pm 10.6 8.5 8.1 84 1.2 NNW 9 9 5 5 1027.8 1027.8 0.0
25/10:00pm 9.5 7.6 7.4 87 1.0 NNW 7 7 4 4 1027.9 1027.9 0.0
25/09:30pm 9.2 8.5 7.1 87 1.0 CALM 0 2 0 1 1027.8 1027.8 0.0
25/09:00pm 9.1 7.7 7.2 88 0.9 NNE 4 11 2 6 1028.0 1028.0 0.0
25/08:30pm 8.7 6.6 6.8 88 0.9 SE 7 9 4 5 1027.9 1027.9 0.0
25/08:00pm 9.9 7.5 7.1 83 1.3 NW 9 9 5 5 1027.7 1027.7 0.0
25/07:30pm 10.1 8.3 7.1 81 1.4 NW 6 7 3 4 1027.8 1027.8 0.0
25/07:00pm 11.6 9.6 7.0 73 2.2 NNW 7 9 4 5 1027.7 1027.7 0.0
25/06:30pm 12.3 11.2 7.1 70 2.5 NNE 2 7 1 4 1027.4 1027.4 0.0
25/06:00pm 13.7 12.4 7.8 67 2.9 NE 4 7 2 4 1027.3 1027.3 0.0
25/05:30pm 14.2 11.9 7.5 64 3.3 ENE 9 11 5 6 1027.1 1027.1 0.0
25/05:00pm 15.4 13.2 7.8 60 3.8 ENE 9 11 5 6 1026.7 1026.7 0.0
25/04:30pm 17.2 15.0 7.9 54 4.7 ENE 9 13 5 7 1026.3 1026.3 0.0
25/04:00pm 17.9 14.6 6.3 46 5.7 ENE 13 17 7 9 1026.4 1026.4 0.0
25/03:30pm 19.1 15.7 6.1 42 6.4 NE 13 17 7 9 1026.4 1026.4 0.0
25/03:00pm 18.6 14.7 5.4 42 6.4 NE 15 19 8 10 1026.5 1026.5 0.0
25/02:30pm 19.3 16.3 6.2 42 6.5 ENE 11 19 6 10 1026.5 1026.5 0.0
25/02:00pm 19.3 16.9 7.0 44 6.2 ENE 9 13 5 7 1026.4 1026.4 0.0
25/01:30pm 18.9 15.8 7.2 46 5.9 NE 13 17 7 9 1026.6 1026.6 0.0
25/01:00pm 19.0 15.6 7.6 47 5.8 NE 15 20 8 11 1026.7 1026.7 0.0
25/12:30pm 18.6 15.2 7.5 48 5.6 NE 15 24 8 13 1027.3 1027.3 0.0
25/12:00pm 17.7 14.8 8.3 54 4.8 NNE 13 17 7 9 1027.9 1027.9 0.0
25/11:30am 16.6 14.5 8.1 57 4.3 NNE 9 15 5 8 1028.7 1028.7 0.0
25/11:00am 15.9 13.1 8.6 62 3.7 NNE 13 17 7 9 1029.3 1029.3 0.0
25/10:30am 14.4 12.4 8.6 68 2.9 NNE 9 11 5 6 1029.7 1029.7 0.0
25/10:00am 13.2 10.6 7.9 70 2.6 NNE 11 13 6 7 1029.9 1029.9 0.0
25/09:30am 11.9 9.2 7.5 74 2.1 NNE 11 15 6 8 1030.1 1030.1 0.0
25/09:00am 11.2 8.6 7.9 80 1.6 N 11 13 6 7 1030.1 1030.1 0.0
25/08:30am 10.2 8.7 8.6 90 0.8 N 6 7 3 4 1030.1 1030.1 0.0
25/08:00am 9.2 7.6 8.2 93 0.5 N 6 7 3 4 1029.9 1029.9 0.0
25/07:30am 8.7 6.4 7.6 93 0.5 NNW 9 11 5 6 1029.6 1029.6 0.0
25/07:00am 8.5 6.8 7.4 93 0.5 N 6 7 3 4 1029.5 1029.5 0.0
25/06:30am 8.4 6.6 7.3 93 0.5 N 6 7 3 4 1029.3 1029.3 0.0
25/06:00am 8.5 7.9 7.2 91 0.6 CALM 0 0 0 0 1029.0 1029.0 0.0
25/05:30am 8.8 8.2 7.5 91 0.6 CALM 0 0 0 0 1028.7 1028.7 0.0
25/05:00am 8.9 7.0 7.6 91 0.6 NW 7 7 4 4 1028.6 1028.6 0.0
25/04:30am 8.7 6.8 7.4 91 0.6 N 7 9 4 5 1028.6 1028.6 0.0
25/04:00am 9.2 7.5 7.5 89 0.8 NW 6 9 3 5 1028.7 1028.7 0.0
25/03:30am 8.5 6.6 7.4 93 0.5 NNW 7 9 4 5 1028.7 1028.7 0.0
25/03:00am 8.6 7.3 7.5 93 0.5 SSW 4 7 2 4 1029.2 1029.2 0.0
25/02:30am 8.4 7.4 7.3 93 0.5 W 2 7 1 4 1029.3 1029.3 0.0
25/02:00am 7.8 5.9 6.7 93 0.5 NNW 6 7 3 4 1029.1 1029.1 0.0
25/01:30am 8.1 6.0 6.6 90 0.7 NNW 7 9 4 5 1028.9 1028.9 0.0
25/01:00am 8.7 8.1 7.4 91 0.6 CALM 0 0 0 0 1028.8 1028.8 0.0
25/12:30am 9.3 7.7 7.8 90 0.7 NW 6 7 3 4 1029.0 1029.0 0.0
25/12:00am 9.1 7.5 7.8 92 0.6 NW 6 7 3 4 1029.2 1029.2 0.0
 
Date/Time
CST
Tmp

°C
App
Tmp
°C
Dew
Point
°C
Rel
Hum
%
Delta-T

°C
Wind Press
QNH
hPa
Press
MSL
hPa
Rain
since
9 am
mm
Dir
 
Spd
km/h
Gust
km/h
Spd
kts
Gust
kts
24/11:30pm 9.3 8.8 7.8 90 0.7 CALM 0 0 0 0 1028.9 1028.9 0.0
24/11:00pm 9.4 8.2 7.9 90 0.7 NW 4 7 2 4 1029.1 1029.1 0.0
24/10:30pm 9.4 7.8 7.9 90 0.7 N 6 7 3 4 1029.1 1029.1 0.0
24/10:00pm 9.8 7.7 8.1 89 0.8 NNW 9 11 5 6 1029.4 1029.4 0.0
24/09:30pm 9.7 7.2 8.0 89 0.8 NNW 11 13 6 7 1029.3 1029.3 0.0
24/09:00pm 9.8 8.6 8.1 89 0.8 S 4 9 2 5 1028.5 1028.5 0.0

Latest Capital City Observations: Canberra | Sydney | Melbourne | Brisbane | Adelaide | Perth | Hobart | Darwin

Other Formats:

Comma delimited format used in spreadsheet applications
http://www.bom.gov.au/fwo/IDS60901/IDS60901.95818.axf

JavaScript Object Notation format (JSON) in row-major order
http://www.bom.gov.au/fwo/IDS60901/IDS60901.95818.json